Time;durP1;ratioP1;P1;durP2;ratioP2;P2;SDS_P1;SDS_P2;PMS_P1;PMS_P2;Temp;Humidity;BMP_temperature;BMP_pressure;BME280_temperature;BME280_humidity;BME280_pressure;Samples;Min_cycle;Max_cycle;Signal;HPM_P1;HPM_P2
2022/01/24 00:00:21;;;;;;;24.63;15.60;;;6.60;44.10;;;;;;6295367;28;20330;-56
2022/01/24 00:03:23;;;;;;;24.33;15.43;;;6.60;44.10;;;;;;6300230;28;20789;-56
2022/01/24 00:06:27;;;;;;;26.07;15.53;;;6.70;44.40;;;;;;6299475;28;20291;-57
2022/01/24 00:09:31;;;;;;;24.00;14.37;;;6.80;44.20;;;;;;6285157;28;20506;-57
2022/01/24 00:12:43;;;;;;;19.93;14.17;;;6.60;44.20;;;;;;6292291;28;20232;-56
2022/01/24 00:29:09;;;;;;;18.67;13.13;;;6.70;44.30;;;;;;6291884;28;20386;-56
2022/01/24 00:32:11;;;;;;;31.77;17.77;;;6.80;44.40;;;;;;6302459;28;20332;-56
2022/01/24 00:35:14;;;;;;;24.17;14.33;;;6.60;44.20;;;;;;6284688;28;20279;-56
2022/01/24 00:38:17;;;;;;;24.50;14.63;;;6.70;44.30;;;;;;6300624;28;20660;-55
2022/01/24 00:41:22;;;;;;;24.87;16.00;;;6.60;44.20;;;;;;6284104;28;20776;-55
2022/01/24 00:44:42;;;;;;;26.87;15.80;;;6.70;44.30;;;;;;6301680;28;20773;-55
2022/01/24 00:54:43;;;;;;;20.83;13.93;;;6.70;44.40;;;;;;6264369;28;20906;-57
2022/01/24 00:57:47;;;;;;;21.33;12.80;;;6.60;44.30;;;;;;6303992;28;20284;-54
2022/01/24 01:00:50;;;;;;;18.87;12.93;;;6.70;44.30;;;;;;6294761;28;20627;-57
2022/01/24 01:03:53;;;;;;;21.03;13.90;;;6.70;44.30;;;;;;6285290;28;20705;-57
2022/01/24 01:06:56;;;;;;;21.27;13.70;;;6.70;44.40;;;;;;6307809;28;20247;-56
2022/01/24 01:20:02;;;;;;;17.33;12.73;;;6.80;44.30;;;;;;6308287;28;20339;-59
2022/01/24 01:23:04;;;;;;;20.93;13.30;;;6.70;44.20;;;;;;6308157;28;20241;-55
2022/01/24 01:26:12;;;;;;;20.70;12.30;;;6.70;44.30;;;;;;6308640;28;20251;-56
2022/01/24 01:29:20;;;;;;;23.10;13.40;;;7.00;44.40;;;;;;6303569;28;20452;-56
2022/01/24 01:32:39;;;;;;;18.67;13.03;;;6.70;44.20;;;;;;6299816;28;20343;-55
2022/01/24 01:35:56;;;;;;;20.27;14.20;;;6.70;44.30;;;;;;6298281;28;20232;-57
2022/01/24 01:39:40;;;;;;;18.70;13.00;;;6.80;44.20;;;;;;6307450;28;20291;-57
2022/01/24 01:52:56;;;;;;;18.93;14.77;;;7.10;44.40;;;;;;6318131;28;20243;-57
2022/01/24 01:55:58;;;;;;;20.60;14.47;;;6.80;44.20;;;;;;6284721;28;20629;-57
2022/01/24 01:59:01;;;;;;;19.37;14.93;;;6.90;44.20;;;;;;6286855;28;20289;-58
2022/01/24 02:02:05;;;;;;;18.17;14.30;;;6.80;44.10;;;;;;6310126;28;20239;-57
2022/01/24 02:05:09;;;;;;;16.13;14.10;;;6.80;44.00;;;;;;6299947;28;20359;-57
2022/01/24 02:08:12;;;;;;;18.80;13.23;;;6.90;44.20;;;;;;6283127;28;20241;-57
2022/01/24 02:11:15;;;;;;;17.90;13.80;;;6.90;44.30;;;;;;6298566;28;20241;-57
2022/01/24 02:14:20;;;;;;;19.40;13.70;;;6.90;44.20;;;;;;6293831;28;20375;-57
2022/01/24 02:17:35;;;;;;;14.97;13.37;;;6.90;44.20;;;;;;6283908;28;20302;-55
2022/01/24 02:21:06;;;;;;;16.23;13.77;;;6.90;44.20;;;;;;6316301;28;20283;-57
2022/01/24 02:24:12;;;;;;;22.80;14.83;;;6.90;44.10;;;;;;6336048;27;20232;-57
2022/01/24 02:27:15;;;;;;;18.00;13.37;;;6.90;44.20;;;;;;6337260;27;20293;-57
2022/01/24 02:30:37;;;;;;;17.73;13.30;;;6.80;43.90;;;;;;6302408;28;20312;-56
2022/01/24 02:33:43;;;;;;;18.67;13.50;;;7.00;44.00;;;;;;6298937;28;20310;-57
2022/01/24 02:36:46;;;;;;;14.70;12.53;;;6.70;43.70;;;;;;6291234;28;20303;-55
2022/01/24 02:39:55;;;;;;;16.87;13.23;;;6.90;43.90;;;;;;6287805;28;20287;-56
2022/01/24 02:49:39;;;;;;;15.70;12.73;;;6.90;43.70;;;;;;6270587;28;20646;-55
2022/01/24 02:52:42;;;;;;;15.50;12.10;;;6.80;43.50;;;;;;6264764;28;20250;-55
2022/01/24 02:55:46;;;;;;;13.80;12.10;;;6.80;43.60;;;;;;6262220;28;20268;-56
2022/01/24 02:58:49;;;;;;;14.07;12.60;;;6.80;43.70;;;;;;6267473;28;20370;-56
2022/01/24 03:01:52;;;;;;;15.17;13.03;;;6.70;43.30;;;;;;6280067;28;20265;-55
2022/01/24 03:04:57;;;;;;;13.30;11.90;;;6.80;43.40;;;;;;6282870;28;20375;-56
2022/01/24 03:08:00;;;;;;;13.90;11.43;;;6.70;43.00;;;;;;6304865;28;20305;-56
2022/01/24 03:11:04;;;;;;;14.93;12.03;;;6.60;43.30;;;;;;6308164;28;20274;-57
2022/01/24 03:14:07;;;;;;;13.07;10.17;;;6.50;43.20;;;;;;6302387;28;20407;-55
2022/01/24 03:17:10;;;;;;;11.60;10.40;;;6.60;42.80;;;;;;6301776;28;20769;-57
2022/01/24 03:20:13;;;;;;;11.13;10.10;;;6.50;42.40;;;;;;6311998;28;20256;-56
2022/01/24 03:23:17;;;;;;;12.23;10.13;;;6.50;42.20;;;;;;6304506;28;20234;-56
2022/01/24 03:26:21;;;;;;;11.77;10.43;;;6.70;42.50;;;;;;6311537;28;20517;-56
2022/01/24 03:29:24;;;;;;;11.13;10.00;;;6.60;42.40;;;;;;6291529;28;20687;-55
2022/01/24 03:32:27;;;;;;;11.30;10.13;;;6.50;42.30;;;;;;6279391;28;20233;-56
2022/01/24 03:35:30;;;;;;;11.03;9.93;;;6.40;42.30;;;;;;6286608;28;20856;-53
2022/01/24 03:38:33;;;;;;;11.47;10.33;;;6.50;42.30;;;;;;6287571;28;20764;-58
2022/01/24 03:41:39;;;;;;;11.13;9.97;;;6.40;42.10;;;;;;6287060;28;20316;-56
2022/01/24 03:44:44;;;;;;;12.37;11.17;;;6.40;42.40;;;;;;6300790;28;20312;-57
2022/01/24 03:48:02;;;;;;;11.43;10.33;;;6.70;42.50;;;;;;6311899;28;20749;-56
2022/01/24 03:51:05;;;;;;;12.40;10.93;;;6.50;42.30;;;;;;6311688;28;20695;-57
2022/01/24 03:54:07;;;;;;;12.83;11.53;;;6.70;42.40;;;;;;6294809;28;20237;-57
2022/01/24 03:57:13;;;;;;;18.77;12.63;;;6.50;42.20;;;;;;6311178;28;20237;-57
2022/01/24 04:00:16;;;;;;;18.23;11.97;;;6.50;42.70;;;;;;6299074;28;20303;-53
2022/01/24 04:03:19;;;;;;;18.10;13.83;;;6.60;42.00;;;;;;6284825;28;20760;-56
2022/01/24 04:06:22;;;;;;;23.00;16.40;;;6.40;42.00;;;;;;6278991;28;20244;-57
2022/01/24 04:09:25;;;;;;;23.47;17.33;;;6.40;42.10;;;;;;6265517;28;20256;-56
2022/01/24 04:12:29;;;;;;;21.20;16.03;;;6.40;42.20;;;;;;6256962;28;20300;-57
2022/01/24 04:16:24;;;;;;;18.13;15.53;;;6.40;42.30;;;;;;6262277;28;20242;-56
2022/01/24 04:21:18;;;;;;;20.77;15.50;;;6.40;42.20;;;;;;6285409;28;20237;-56
2022/01/24 04:22:52;;;;;;;22.43;15.57;;;6.50;42.40;;;;;;6288035;28;20310;-55
2022/01/24 04:25:55;;;;;;;18.57;15.23;;;6.60;42.40;;;;;;6309198;28;20709;-57
2022/01/24 04:29:00;;;;;;;18.17;14.07;;;6.50;42.40;;;;;;6286706;28;20524;-56
2022/01/24 04:32:03;;;;;;;15.53;13.73;;;6.70;42.50;;;;;;6280309;28;20296;-56
2022/01/24 04:35:06;;;;;;;17.10;14.37;;;6.50;42.60;;;;;;6289399;28;20787;-57
2022/01/24 04:38:09;;;;;;;14.83;13.33;;;6.60;42.60;;;;;;6294701;28;20701;-56
2022/01/24 04:41:18;;;;;;;18.87;15.83;;;6.40;42.30;;;;;;6279237;28;20255;-56
2022/01/24 04:44:44;;;;;;;18.03;14.97;;;6.50;42.50;;;;;;6286361;28;20225;-56
2022/01/24 04:50:26;;;;;;;20.53;16.17;;;6.70;42.70;;;;;;6293176;28;20617;-56
2022/01/24 04:51:25;;;;;;;20.53;15.27;;;6.50;42.30;;;;;;6296921;28;20325;-57
2022/01/24 04:54:40;;;;;;;23.17;16.50;;;6.50;42.20;;;;;;6281810;28;20698;-56
2022/01/24 04:57:42;;;;;;;19.83;16.77;;;6.50;42.30;;;;;;6277521;28;20828;-55
2022/01/24 05:00:46;;;;;;;19.97;17.43;;;6.70;42.40;;;;;;6272669;28;20654;-56
2022/01/24 05:03:49;;;;;;;20.87;17.03;;;6.50;42.50;;;;;;6272270;28;20241;-55
2022/01/24 05:06:52;;;;;;;18.93;17.00;;;6.40;42.10;;;;;;6265911;28;20241;-56
2022/01/24 05:10:01;;;;;;;25.57;16.37;;;6.40;42.20;;;;;;6292071;28;20247;-57
2022/01/24 05:23:30;;;;;;;15.00;12.90;;;6.40;42.30;;;;;;6270213;28;20311;-56
2022/01/24 05:26:33;;;;;;;14.03;12.63;;;6.40;42.50;;;;;;6272194;28;20808;-55
2022/01/24 05:29:35;;;;;;;14.33;12.93;;;6.40;42.30;;;;;;6275366;28;20229;-62
2022/01/24 05:32:39;;;;;;;17.83;13.37;;;6.40;42.20;;;;;;6263488;28;20229;-57
2022/01/24 05:35:43;;;;;;;17.00;14.10;;;6.60;42.50;;;;;;6265021;28;20424;-56
2022/01/24 05:38:46;;;;;;;15.57;13.57;;;6.40;42.00;;;;;;6286065;28;20271;-56
2022/01/24 05:41:49;;;;;;;17.17;14.03;;;6.50;42.20;;;;;;6298948;28;20240;-56
2022/01/24 05:44:53;;;;;;;16.40;13.57;;;6.40;41.90;;;;;;6299358;28;20428;-57
2022/01/24 05:47:57;;;;;;;15.30;13.70;;;6.60;42.10;;;;;;6282653;28;20334;-56
2022/01/24 05:50:59;;;;;;;14.97;12.83;;;6.30;41.80;;;;;;6296149;28;20239;-56
2022/01/24 05:54:03;;;;;;;20.90;14.43;;;6.30;41.80;;;;;;6301852;28;20228;-56
2022/01/24 05:57:07;;;;;;;20.60;15.90;;;6.50;41.70;;;;;;6292655;28;20328;-57
2022/01/24 06:00:11;;;;;;;20.70;15.80;;;6.30;41.80;;;;;;6297710;28;20320;-57
2022/01/24 06:03:16;;;;;;;17.50;15.47;;;6.30;41.40;;;;;;6294400;28;20225;-56
2022/01/24 06:06:19;;;;;;;19.00;16.37;;;6.50;41.40;;;;;;6289530;28;20321;-58
2022/01/24 06:09:21;;;;;;;22.03;17.03;;;6.50;41.50;;;;;;6265557;28;20240;-56
2022/01/24 06:12:25;;;;;;;16.47;14.77;;;6.30;41.20;;;;;;6282624;28;20241;-57
2022/01/24 06:15:28;;;;;;;19.27;15.57;;;6.30;41.20;;;;;;6277025;28;20230;-55
2022/01/24 06:18:32;;;;;;;16.03;13.93;;;6.40;40.80;;;;;;6277343;28;20514;-56
2022/01/24 06:21:34;;;;;;;15.43;12.93;;;6.50;41.00;;;;;;6272844;28;20714;-57
2022/01/24 06:24:37;;;;;;;16.80;13.53;;;6.10;40.40;;;;;;6279949;28;20226;-58
2022/01/24 06:27:57;;;;;;;14.63;12.73;;;6.30;39.30;;;;;;6282549;28;20419;-57
2022/01/24 06:31:00;;;;;;;14.37;13.00;;;6.10;39.00;;;;;;6293602;28;20315;-56
2022/01/24 06:34:06;;;;;;;17.10;14.43;;;6.30;39.60;;;;;;6292328;28;20229;-56
2022/01/24 06:37:09;;;;;;;15.60;13.93;;;6.30;38.70;;;;;;6299697;28;20762;-60
2022/01/24 06:40:13;;;;;;;21.40;17.07;;;6.20;37.80;;;;;;6301198;28;20248;-56
2022/01/24 06:43:15;;;;;;;22.43;18.17;;;6.20;38.20;;;;;;6302316;28;20325;-56
2022/01/24 06:46:18;;;;;;;19.50;15.93;;;6.20;37.90;;;;;;6295356;28;20307;-56
2022/01/24 06:49:22;;;;;;;17.27;14.90;;;6.40;38.40;;;;;;6293754;28;20750;-57
2022/01/24 06:52:25;;;;;;;19.03;14.40;;;6.30;38.70;;;;;;6290959;28;20244;-56
2022/01/24 06:55:28;;;;;;;16.67;14.03;;;6.20;38.60;;;;;;6294364;28;20233;-56
2022/01/24 06:58:31;;;;;;;13.97;12.57;;;6.00;38.90;;;;;;6299235;28;20655;-57
2022/01/24 07:01:33;;;;;;;13.13;11.83;;;6.20;38.90;;;;;;6296474;28;20766;-56
2022/01/24 07:04:39;;;;;;;17.43;14.93;;;6.10;39.20;;;;;;6267360;28;20222;-58
2022/01/24 07:07:42;;;;;;;18.00;15.83;;;6.30;39.60;;;;;;6281144;28;20502;-57
2022/01/24 07:10:45;;;;;;;17.27;15.27;;;6.10;39.30;;;;;;6278713;28;20276;-58
2022/01/24 07:13:49;;;;;;;23.43;17.60;;;6.40;40.00;;;;;;6276398;28;20257;-56
2022/01/24 07:17:10;;;;;;;26.87;19.30;;;6.40;40.20;;;;;;6265531;28;20725;-56
2022/01/24 07:20:16;;;;;;;25.03;19.07;;;6.20;40.40;;;;;;6281815;28;20330;-56
2022/01/24 07:23:19;;;;;;;22.70;18.77;;;6.10;40.00;;;;;;6305148;28;20607;-56
2022/01/24 07:26:26;;;;;;;21.93;17.57;;;6.40;40.60;;;;;;6293623;28;20228;-56
2022/01/24 07:29:30;;;;;;;18.20;15.13;;;6.20;41.00;;;;;;6291278;28;20308;-57
2022/01/24 07:32:32;;;;;;;17.43;14.13;;;6.20;40.60;;;;;;6297845;28;20767;-56
2022/01/24 07:35:37;;;;;;;13.93;12.50;;;6.10;40.50;;;;;;6294767;28;20400;-56
2022/01/24 07:38:39;;;;;;;15.73;13.13;;;6.10;40.10;;;;;;6299865;28;20274;-57
2022/01/24 07:41:45;;;;;;;15.27;12.20;;;6.10;40.20;;;;;;6300062;28;20236;-57
2022/01/24 07:44:47;;;;;;;13.20;11.80;;;6.20;40.50;;;;;;6297973;28;20329;-56
2022/01/24 07:47:51;;;;;;;12.13;10.83;;;6.20;40.80;;;;;;6299980;28;20722;-57
2022/01/24 07:50:55;;;;;;;14.23;12.63;;;6.20;41.20;;;;;;6296106;28;20324;-56
2022/01/24 07:53:57;;;;;;;17.10;14.67;;;6.40;41.00;;;;;;6269367;28;20320;-56
2022/01/24 07:57:00;;;;;;;23.30;16.43;;;6.40;41.30;;;;;;6274530;28;20807;-56
2022/01/24 08:00:06;;;;;;;23.27;18.00;;;6.30;41.90;;;;;;6276345;28;20753;-55
2022/01/24 08:03:10;;;;;;;20.20;16.53;;;6.00;41.00;;;;;;6265383;28;20616;-58
2022/01/24 08:06:14;;;;;;;21.80;16.53;;;6.20;41.20;;;;;;6267078;28;20833;-56
2022/01/24 08:09:17;;;;;;;20.37;15.00;;;6.00;40.90;;;;;;6264404;28;20242;-56
2022/01/24 08:12:20;;;;;;;18.60;14.23;;;6.20;41.20;;;;;;6262245;28;20276;-56
2022/01/24 08:15:24;;;;;;;16.97;12.97;;;6.60;41.40;;;;;;6266380;28;20258;-57
2022/01/24 08:18:26;;;;;;;13.80;12.40;;;6.50;41.40;;;;;;6274301;28;20812;-57
2022/01/24 08:21:30;;;;;;;14.37;11.87;;;6.50;40.30;;;;;;6271048;28;20290;-57
2022/01/24 08:24:33;;;;;;;12.50;11.20;;;6.30;40.30;;;;;;6266262;28;20359;-56
2022/01/24 08:27:37;;;;;;;11.50;10.30;;;6.30;40.10;;;;;;6267888;28;20243;-57
2022/01/24 08:30:40;;;;;;;11.77;10.33;;;6.40;38.50;;;;;;6267235;28;20317;-56
2022/01/24 08:33:43;;;;;;;11.80;10.63;;;6.30;38.60;;;;;;6275316;28;20229;-58
2022/01/24 08:36:47;;;;;;;13.07;10.20;;;6.40;38.50;;;;;;6270152;28;20441;-58
2022/01/24 08:39:50;;;;;;;15.20;10.43;;;6.70;38.70;;;;;;6287107;28;20845;-57
2022/01/24 08:43:11;;;;;;;12.00;10.27;;;6.90;38.90;;;;;;6295224;28;20229;-55
2022/01/24 08:46:14;;;;;;;14.53;11.90;;;6.70;37.90;;;;;;6293238;28;20747;-57
2022/01/24 08:49:16;;;;;;;14.53;12.83;;;6.40;34.70;;;;;;6285045;28;20400;-57
2022/01/24 08:52:21;;;;;;;15.07;12.73;;;6.70;34.70;;;;;;6295237;28;20519;-56
2022/01/24 08:55:44;;;;;;;15.90;14.07;;;6.70;35.60;;;;;;6291376;28;20240;-58
2022/01/24 08:58:47;;;;;;;19.63;14.63;;;6.70;35.10;;;;;;6293929;28;20306;-57
2022/01/24 09:01:50;;;;;;;18.77;14.73;;;6.80;34.50;;;;;;6296638;28;20245;-59
2022/01/24 09:04:53;;;;;;;17.03;14.57;;;6.80;35.70;;;;;;6287370;28;20290;-58
2022/01/24 09:07:57;;;;;;;15.90;13.67;;;7.10;32.40;;;;;;6285489;28;20265;-58
2022/01/24 09:11:00;;;;;;;14.17;11.33;;;6.90;33.20;;;;;;6287548;28;20239;-61
2022/01/24 09:14:05;;;;;;;12.67;10.97;;;7.00;32.80;;;;;;6285942;28;20259;-58
2022/01/24 09:17:08;;;;;;;11.83;9.97;;;7.10;33.20;;;;;;6301741;28;20799;-56
2022/01/24 09:20:12;;;;;;;11.03;9.93;;;7.10;31.30;;;;;;6294985;28;20729;-57
2022/01/24 09:23:19;;;;;;;14.13;11.03;;;7.10;29.30;;;;;;6287554;28;20233;-58
2022/01/24 09:26:22;;;;;;;10.90;9.87;;;7.20;29.10;;;;;;6293461;28;20232;-57
2022/01/24 09:29:26;;;;;;;12.00;10.63;;;7.20;29.20;;;;;;6300313;28;20363;-56
2022/01/24 09:32:28;;;;;;;11.57;9.77;;;7.30;27.10;;;;;;6280961;28;20830;-57
2022/01/24 09:35:31;;;;;;;10.30;9.33;;;7.30;23.60;;;;;;6305488;28;20757;-58
2022/01/24 09:38:36;;;;;;;10.33;9.37;;;7.30;24.10;;;;;;6300556;28;20293;-56
2022/01/24 09:41:43;;;;;;;10.23;9.33;;;7.30;23.60;;;;;;6291031;28;20383;-58
2022/01/24 09:45:08;;;;;;;9.90;8.97;;;7.30;23.10;;;;;;6268098;28;20698;-58
2022/01/24 09:48:13;;;;;;;9.43;8.57;;;7.40;23.60;;;;;;6275104;28;20237;-56
2022/01/24 09:51:16;;;;;;;9.30;8.30;;;7.40;19.60;;;;;;6291913;28;20240;-57
2022/01/24 09:54:20;;;;;;;8.20;7.60;;;7.40;20.50;;;;;;6294212;28;20370;-57
2022/01/24 09:57:22;;;;;;;9.83;8.23;;;7.40;19.60;;;;;;6277182;28;20384;-57
2022/01/24 10:00:29;;;;;;;8.27;7.57;;;7.40;20.00;;;;;;6279283;28;20229;-56
2022/01/24 10:03:32;;;;;;;8.70;7.90;;;7.40;20.50;;;;;;6269124;28;20240;-58
2022/01/24 10:07:04;;;;;;;9.40;8.40;;;7.50;20.60;;;;;;6270628;28;20226;-57
2022/01/24 10:10:08;;;;;;;9.70;8.90;;;7.50;17.60;;;;;;6285488;28;20222;-56
2022/01/24 10:16:44;;;;;;;9.50;8.60;;;7.50;18.80;;;;;;6271305;28;20480;-58
2022/01/24 10:19:47;;;;;;;10.13;9.13;;;7.50;16.60;;;;;;6271025;28;20238;-56
2022/01/24 10:23:09;;;;;;;9.37;8.33;;;7.40;16.80;;;;;;6263923;28;20259;-57
2022/01/24 10:26:14;;;;;;;9.87;9.00;;;7.30;15.30;;;;;;6274069;28;20310;-56
2022/01/24 10:29:17;;;;;;;9.47;8.60;;;7.30;15.80;;;;;;6265103;28;20262;-57
2022/01/24 10:32:39;;;;;;;10.10;9.03;;;7.20;16.50;;;;;;6260244;28;20542;-58
2022/01/24 10:35:45;;;;;;;10.50;9.40;;;7.20;16.40;;;;;;6268838;28;20461;-57
2022/01/24 10:38:55;;;;;;;10.20;9.20;;;7.20;18.10;;;;;;6271271;28;20644;-57
2022/01/24 10:45:45;;;;;;;7.57;7.03;;;7.00;17.10;;;;;;6265519;28;20690;-57
2022/01/24 10:48:50;;;;;;;7.57;7.00;;;7.00;16.80;;;;;;6288151;28;20226;-56
2022/01/24 10:51:53;;;;;;;7.77;7.13;;;7.00;16.30;;;;;;6294042;28;20241;-56
2022/01/24 10:55:13;;;;;;;7.77;7.23;;;7.00;17.30;;;;;;6304664;28;20906;-58
2022/01/24 10:58:18;;;;;;;8.90;8.10;;;7.10;18.50;;;;;;6281294;28;20399;-57
2022/01/24 11:01:26;;;;;;;9.77;8.97;;;7.20;17.80;;;;;;6287502;28;20233;-56
2022/01/24 11:04:29;;;;;;;9.20;8.47;;;7.30;17.60;;;;;;6274870;28;20317;-57
2022/01/24 11:07:32;;;;;;;9.60;8.80;;;7.40;17.70;;;;;;6273298;28;20316;-56
2022/01/24 11:10:37;;;;;;;8.53;7.77;;;7.50;15.10;;;;;;6277578;28;20225;-58
2022/01/24 11:13:43;;;;;;;7.77;6.87;;;7.50;16.60;;;;;;6279305;28;20289;-56
2022/01/24 11:16:47;;;;;;;7.30;6.80;;;7.70;13.40;;;;;;6266241;28;20433;-56
2022/01/24 11:19:56;;;;;;;6.00;5.60;;;7.70;9.90;;;;;;6272513;28;20243;-56
2022/01/24 11:23:01;;;;;;;6.53;6.17;;;7.50;3.70;;;;;;6307741;28;20263;-56
2022/01/24 11:26:05;;;;;;;6.33;5.93;;;7.50;4.40;;;;;;6277591;28;20739;-57
2022/01/24 11:29:10;;;;;;;7.03;6.47;;;7.50;4.20;;;;;;6277857;28;20758;-57
2022/01/24 11:32:19;;;;;;;6.93;6.43;;;7.40;5.00;;;;;;6282375;28;20391;-56
2022/01/24 11:35:34;;;;;;;7.53;7.10;;;7.30;4.30;;;;;;6275479;28;22385;-57
2022/01/24 11:38:40;;;;;;;6.60;6.20;;;7.40;6.40;;;;;;6274877;28;20233;-56
2022/01/24 11:41:45;;;;;;;7.23;6.83;;;7.20;6.80;;;;;;6275818;28;20328;-56
2022/01/24 11:44:52;;;;;;;7.37;6.77;;;7.10;8.30;;;;;;6276440;28;20256;-57
2022/01/24 11:48:14;;;;;;;7.30;6.83;;;7.40;9.80;;;;;;6274564;28;20420;-57
2022/01/24 11:51:17;;;;;;;7.03;6.43;;;7.00;10.90;;;;;;6270751;28;20234;-56
2022/01/24 11:54:43;;;;;;;7.50;6.90;;;6.90;10.50;;;;;;6283439;28;20225;-57
2022/01/24 11:57:49;;;;;;;7.30;6.87;;;6.90;10.80;;;;;;6287240;28;20400;-56
2022/01/24 12:00:55;;;;;;;7.47;6.87;;;6.80;10.50;;;;;;6286245;28;20234;-56
2022/01/24 12:03:58;;;;;;;6.07;5.77;;;6.80;12.20;;;;;;6291423;28;20229;-56
2022/01/24 12:07:18;;;;;;;6.63;6.13;;;6.80;11.70;;;;;;6303349;28;20418;-56
2022/01/24 12:10:43;;;;;;;6.37;5.97;;;6.70;12.20;;;;;;6289820;28;20230;-56
2022/01/24 12:13:47;;;;;;;7.03;6.10;;;6.90;11.30;;;;;;6301338;28;20718;-56
2022/01/24 12:16:52;;;;;;;6.67;6.17;;;6.80;10.10;;;;;;6293498;28;20853;-56
2022/01/24 12:19:55;;;;;;;6.97;6.37;;;6.80;11.20;;;;;;6295081;28;20371;-57
2022/01/24 12:22:58;;;;;;;7.50;6.83;;;7.00;12.80;;;;;;6289947;28;20241;-56
2022/01/24 12:26:06;;;;;;;7.57;6.97;;;6.80;13.10;;;;;;6285029;28;20308;-57
2022/01/24 12:29:11;;;;;;;8.30;7.70;;;6.70;12.30;;;;;;6293735;28;20268;-56
2022/01/24 12:32:23;;;;;;;8.83;8.03;;;6.80;12.30;;;;;;6278974;28;20278;-55
2022/01/24 12:35:28;;;;;;;8.83;8.00;;;6.70;13.30;;;;;;6298964;28;20233;-58
2022/01/24 12:38:50;;;;;;;7.10;6.53;;;6.70;13.10;;;;;;6291791;28;20244;-56
2022/01/24 12:41:58;;;;;;;8.07;7.03;;;6.70;13.30;;;;;;6300358;28;20490;-56
2022/01/24 12:48:33;;;;;;;7.53;6.93;;;6.60;13.90;;;;;;6276979;28;20222;-57
2022/01/24 12:51:37;;;;;;;7.83;7.13;;;6.70;15.10;;;;;;6266254;28;20303;-56
2022/01/24 12:54:41;;;;;;;7.90;7.20;;;6.60;15.90;;;;;;6278063;28;20233;-58
2022/01/24 12:57:44;;;;;;;7.67;7.17;;;6.40;16.40;;;;;;6283784;28;20260;-56
2022/01/24 13:00:47;;;;;;;8.40;7.80;;;6.60;18.50;;;;;;6266289;28;20731;-55
2022/01/24 13:03:55;;;;;;;8.63;7.87;;;6.70;18.80;;;;;;6262690;28;20722;-56
2022/01/24 13:06:59;;;;;;;8.93;8.17;;;6.70;20.00;;;;;;6259991;28;20340;-56
2022/01/24 13:10:04;;;;;;;8.90;8.10;;;6.50;21.10;;;;;;6275785;28;20267;-56
2022/01/24 13:13:11;;;;;;;8.87;8.07;;;6.60;21.20;;;;;;6260581;28;20297;-57
2022/01/24 13:23:01;;;;;;;9.20;8.40;;;6.80;21.50;;;;;;6283135;28;20307;-56
2022/01/24 13:26:06;;;;;;;8.20;7.60;;;6.60;21.80;;;;;;6265046;28;20233;-57
2022/01/24 13:29:09;;;;;;;7.67;7.17;;;6.40;21.00;;;;;;6274589;28;20254;-58
2022/01/24 13:32:12;;;;;;;8.67;7.97;;;6.60;19.10;;;;;;6260904;28;20252;-57
2022/01/24 13:35:19;;;;;;;7.87;7.37;;;6.60;19.00;;;;;;6269241;28;20284;-56
2022/01/24 13:38:25;;;;;;;8.10;7.40;;;6.50;19.50;;;;;;6268418;28;20275;-56
2022/01/24 13:41:28;;;;;;;7.90;7.30;;;6.80;20.20;;;;;;6267150;28;20249;-55
2022/01/24 13:44:30;;;;;;;8.47;7.77;;;6.20;19.70;;;;;;6268654;28;20253;-57
2022/01/24 13:47:33;;;;;;;10.03;8.10;;;6.60;20.10;;;;;;6277449;28;20229;-57
2022/01/24 13:50:37;;;;;;;10.87;7.87;;;6.70;20.70;;;;;;6268146;28;20238;-55
2022/01/24 13:53:42;;;;;;;9.37;8.67;;;6.80;20.50;;;;;;6258982;28;20508;-54
2022/01/24 13:56:46;;;;;;;8.63;8.03;;;6.60;21.20;;;;;;6265807;28;20304;-57
2022/01/24 13:59:50;;;;;;;8.70;8.00;;;6.90;20.20;;;;;;6258980;28;20238;-56
2022/01/24 14:03:10;;;;;;;9.57;8.87;;;6.50;21.00;;;;;;6261571;28;20244;-57
2022/01/24 14:06:33;;;;;;;8.90;8.10;;;6.60;21.40;;;;;;6264920;28;20713;-59
2022/01/24 14:09:39;;;;;;;8.43;7.70;;;6.50;21.90;;;;;;6266646;28;20718;-57
2022/01/24 14:12:50;;;;;;;8.53;7.83;;;6.40;23.20;;;;;;6261803;28;20361;-56
2022/01/24 14:16:00;;;;;;;9.27;8.50;;;6.40;24.10;;;;;;6283284;28;20318;-57
2022/01/24 14:19:03;;;;;;;9.27;8.47;;;6.70;25.10;;;;;;6276316;28;20230;-57
2022/01/24 14:22:09;;;;;;;9.30;8.40;;;6.60;25.50;;;;;;6277089;28;20253;-56
2022/01/24 14:25:15;;;;;;;9.27;8.57;;;6.40;25.50;;;;;;6265484;28;20286;-56
2022/01/24 14:28:18;;;;;;;9.30;8.50;;;6.30;25.50;;;;;;6265892;28;20286;-56
2022/01/24 14:31:24;;;;;;;9.60;8.80;;;6.30;25.80;;;;;;6273889;28;20275;-58
2022/01/24 14:34:30;;;;;;;10.30;9.23;;;6.30;25.40;;;;;;6275748;28;20233;-56
2022/01/24 14:37:47;;;;;;;9.67;8.93;;;6.50;26.00;;;;;;6278195;28;20482;-58
2022/01/24 14:40:52;;;;;;;10.23;9.23;;;6.30;25.70;;;;;;6275973;28;20283;-59
2022/01/24 14:47:17;;;;;;;10.40;9.43;;;6.30;25.40;;;;;;6274901;28;20339;-54
2022/01/24 14:50:20;;;;;;;10.60;9.70;;;6.20;25.30;;;;;;6273587;28;20251;-56
2022/01/24 14:53:28;;;;;;;12.13;9.80;;;6.20;25.30;;;;;;6297186;28;20339;-56
2022/01/24 14:56:33;;;;;;;11.53;10.33;;;6.10;26.90;;;;;;6296261;28;20708;-56
2022/01/24 14:59:38;;;;;;;11.30;10.20;;;6.40;27.80;;;;;;6290432;28;20241;-56
2022/01/24 15:02:41;;;;;;;11.30;10.00;;;6.10;27.90;;;;;;6300497;28;20260;-56
2022/01/24 15:05:43;;;;;;;12.53;11.30;;;6.20;28.10;;;;;;6302230;28;20879;-56
2022/01/24 15:08:50;;;;;;;12.57;11.37;;;6.10;28.50;;;;;;6292603;28;20221;-56
2022/01/24 15:11:54;;;;;;;12.93;11.67;;;6.00;28.90;;;;;;6290483;28;20336;-56
2022/01/24 15:15:00;;;;;;;13.67;12.27;;;6.10;29.10;;;;;;6287304;28;20909;-56
2022/01/24 15:28:05;;;;;;;15.43;12.90;;;5.90;30.10;;;;;;6264418;28;20260;-56
2022/01/24 15:31:08;;;;;;;17.67;13.60;;;6.10;32.10;;;;;;6278476;28;20563;-58
2022/01/24 15:34:10;;;;;;;12.80;11.50;;;6.10;31.10;;;;;;6274659;28;20242;-56
2022/01/24 15:37:13;;;;;;;15.47;13.03;;;6.00;31.30;;;;;;6270017;28;20689;-57
2022/01/24 15:40:18;;;;;;;18.87;15.00;;;5.70;31.10;;;;;;6265015;28;20292;-56
2022/01/24 15:43:40;;;;;;;19.10;14.33;;;5.90;31.30;;;;;;6274906;28;20244;-55
2022/01/24 15:46:53;;;;;;;19.73;14.97;;;5.70;31.00;;;;;;6265112;28;20233;-58
2022/01/24 15:49:56;;;;;;;20.93;16.80;;;5.70;31.20;;;;;;6265771;28;20320;-57
2022/01/24 15:52:59;;;;;;;21.13;15.60;;;5.70;31.20;;;;;;6277400;28;20291;-57
2022/01/24 15:56:16;;;;;;;20.10;16.37;;;5.70;31.30;;;;;;6274909;28;20237;-57
2022/01/24 15:59:18;;;;;;;20.53;16.03;;;5.70;31.20;;;;;;6288427;28;20229;-56
2022/01/24 16:02:21;;;;;;;19.33;16.00;;;5.60;31.60;;;;;;6278118;28;20320;-56
2022/01/24 16:05:26;;;;;;;17.70;14.87;;;5.90;31.60;;;;;;6273672;28;20302;-56
2022/01/24 16:08:29;;;;;;;19.60;15.63;;;5.70;31.60;;;;;;6267420;28;20317;-57
2022/01/24 16:11:33;;;;;;;23.27;17.33;;;5.90;31.30;;;;;;6265361;28;20871;-57
2022/01/24 16:14:55;;;;;;;25.33;18.07;;;5.70;31.30;;;;;;6271344;28;20225;-57
2022/01/24 16:18:00;;;;;;;21.60;17.70;;;5.70;31.60;;;;;;6296912;28;20241;-57
2022/01/24 16:21:15;;;;;;;23.80;18.00;;;5.50;32.40;;;;;;6290980;28;20250;-56
2022/01/24 16:27:45;;;;;;;22.00;16.97;;;5.80;32.50;;;;;;6255264;28;20226;-58
2022/01/24 16:30:51;;;;;;;24.10;17.00;;;5.50;32.40;;;;;;6270141;28;20328;-57
2022/01/24 16:33:55;;;;;;;23.93;16.97;;;5.80;32.60;;;;;;6290637;28;20253;-57
2022/01/24 16:36:58;;;;;;;22.83;15.63;;;5.60;33.20;;;;;;6290971;28;20951;-58
2022/01/24 16:40:01;;;;;;;22.63;15.87;;;5.60;32.80;;;;;;6291028;28;20363;-56
2022/01/24 16:43:41;;;;;;;20.53;16.57;;;5.70;32.70;;;;;;6293808;28;20667;-57
2022/01/24 16:47:06;;;;;;;23.03;15.87;;;5.50;33.60;;;;;;6265637;28;20373;-56
2022/01/24 16:50:09;;;;;;;22.20;15.07;;;5.50;34.00;;;;;;6278506;28;20241;-58
2022/01/24 16:53:15;;;;;;;23.97;16.57;;;5.40;33.60;;;;;;6279337;28;20464;-57
2022/01/24 16:56:18;;;;;;;22.87;16.33;;;5.70;34.10;;;;;;6266589;28;20303;-57
2022/01/24 16:59:22;;;;;;;22.37;16.57;;;5.70;33.90;;;;;;6273465;28;20221;-57
2022/01/24 17:02:25;;;;;;;23.17;17.77;;;5.40;33.70;;;;;;6290660;28;20615;-57
2022/01/24 17:05:28;;;;;;;23.00;16.77;;;5.40;34.50;;;;;;6277107;28;20245;-57
2022/01/24 17:08:31;;;;;;;23.07;17.30;;;5.40;34.30;;;;;;6273824;28;20229;-57
2022/01/24 17:11:34;;;;;;;23.27;16.90;;;5.50;34.60;;;;;;6274281;28;20238;-57
2022/01/24 17:14:39;;;;;;;21.67;16.70;;;5.50;34.50;;;;;;6285323;28;20266;-55
2022/01/24 17:17:42;;;;;;;21.77;15.00;;;5.80;34.70;;;;;;6301009;28;20232;-57
2022/01/24 17:20:45;;;;;;;19.50;14.87;;;5.60;34.60;;;;;;6290532;28;20379;-55
2022/01/24 17:23:47;;;;;;;19.13;14.20;;;5.50;33.80;;;;;;6273908;28;20847;-55
2022/01/24 17:35:36;;;;;;;21.60;15.50;;;5.60;34.60;;;;;;6309321;27;20233;-57
2022/01/24 17:38:39;;;;;;;21.07;15.80;;;5.60;33.90;;;;;;6294844;28;20317;-60
2022/01/24 17:41:41;;;;;;;23.10;15.50;;;5.50;33.90;;;;;;6296833;28;20561;-57
2022/01/24 17:44:45;;;;;;;23.27;16.23;;;5.70;33.90;;;;;;6283294;28;21211;-57